Time;durP1;ratioP1;P1;durP2;ratioP2;P2;SDS_P1;SDS_P2;PMS_P1;PMS_P2;Temp;Humidity;BMP_temperature;BMP_pressure;BME280_temperature;BME280_humidity;BME280_pressure;Samples;Min_cycle;Max_cycle;Signal;HPM_P1;HPM_P2
2022/07/09 00:02:08;;;;;;;11.90;5.20;;;15.00;99.90;;;;;;5042235;28;20024;-45
2022/07/09 00:04:33;;;;;;;8.68;4.60;;;15.10;99.90;;;;;;5047751;28;20128;-45
2022/07/09 00:07:00;;;;;;;13.27;4.50;;;15.00;99.90;;;;;;5048403;28;20087;-45
2022/07/09 00:09:25;;;;;;;11.05;3.97;;;15.00;99.90;;;;;;5048290;28;20474;-46
2022/07/09 00:11:52;;;;;;;15.27;4.82;;;15.00;99.90;;;;;;5048525;28;20033;-45
2022/07/09 00:14:17;;;;;;;11.25;4.53;;;15.00;99.90;;;;;;5047339;28;20095;-45
2022/07/09 00:16:43;;;;;;;8.02;4.63;;;15.00;99.90;;;;;;5048432;28;20025;-45
2022/07/09 00:19:08;;;;;;;12.23;5.38;;;14.90;99.90;;;;;;5048678;28;20021;-47
2022/07/09 00:21:34;;;;;;;11.82;4.95;;;14.90;99.90;;;;;;5048095;28;20114;-47
2022/07/09 00:23:59;;;;;;;12.73;4.93;;;14.90;99.90;;;;;;5047856;28;20052;-46
2022/07/09 00:26:25;;;;;;;12.85;4.88;;;14.80;99.90;;;;;;5048137;28;20470;-45
2022/07/09 00:28:50;;;;;;;11.77;5.00;;;14.80;99.90;;;;;;5044339;28;20025;-46
2022/07/09 00:31:16;;;;;;;9.80;4.38;;;14.80;99.90;;;;;;5039816;28;20029;-45
2022/07/09 00:33:41;;;;;;;10.73;4.85;;;14.80;99.90;;;;;;5046649;28;20033;-46
2022/07/09 00:36:09;;;;;;;6.97;4.57;;;14.80;99.90;;;;;;5035749;28;20395;-45
2022/07/09 00:38:35;;;;;;;10.38;4.80;;;14.80;99.90;;;;;;5044184;28;20059;-46
2022/07/09 00:41:01;;;;;;;10.25;5.40;;;14.80;99.90;;;;;;5047933;28;20033;-47
2022/07/09 00:43:27;;;;;;;11.10;4.80;;;14.80;99.90;;;;;;5048040;28;20067;-46
2022/07/09 00:45:52;;;;;;;14.32;5.05;;;14.80;99.90;;;;;;5047671;28;20025;-45
2022/07/09 00:48:19;;;;;;;10.98;5.28;;;14.70;99.90;;;;;;5048131;28;20017;-46
2022/07/09 00:50:45;;;;;;;11.82;5.18;;;14.70;99.90;;;;;;5047867;28;20146;-45
2022/07/09 00:53:14;;;;;;;11.68;5.28;;;14.70;99.90;;;;;;5046944;28;20113;-46
2022/07/09 00:55:40;;;;;;;12.52;4.65;;;14.60;99.90;;;;;;5049845;28;20032;-46
2022/07/09 00:58:07;;;;;;;8.73;4.95;;;14.60;99.90;;;;;;5051684;28;20025;-45
2022/07/09 01:00:34;;;;;;;8.85;4.38;;;14.50;99.90;;;;;;5051243;28;20520;-46
2022/07/09 01:02:59;;;;;;;12.73;4.97;;;14.50;99.90;;;;;;5051643;28;20184;-46
2022/07/09 01:05:25;;;;;;;12.30;5.50;;;14.50;99.90;;;;;;5041639;28;20032;-46
2022/07/09 01:07:50;;;;;;;6.55;4.60;;;14.50;99.90;;;;;;5042948;28;20104;-46
2022/07/09 01:10:16;;;;;;;8.40;5.22;;;14.50;99.90;;;;;;5051605;28;20021;-46
2022/07/09 01:12:44;;;;;;;10.93;5.65;;;14.50;99.90;;;;;;5051056;28;20106;-46
2022/07/09 01:15:10;;;;;;;13.48;6.00;;;14.50;99.90;;;;;;5050537;28;20021;-46
2022/07/09 01:17:39;;;;;;;14.82;5.30;;;14.50;99.90;;;;;;5051303;28;20104;-47
2022/07/09 01:20:06;;;;;;;15.55;6.60;;;14.50;99.90;;;;;;5051120;28;20489;-45
2022/07/09 01:22:33;;;;;;;9.27;5.38;;;14.60;99.90;;;;;;5051199;28;20508;-46
2022/07/09 01:24:59;;;;;;;13.30;5.03;;;14.60;99.90;;;;;;5050413;28;20036;-45
2022/07/09 01:27:25;;;;;;;12.02;5.65;;;14.60;99.90;;;;;;5051079;28;20044;-46
2022/07/09 01:29:50;;;;;;;9.70;5.75;;;14.60;99.90;;;;;;5050887;28;20129;-46
2022/07/09 01:32:16;;;;;;;12.98;5.47;;;14.60;99.90;;;;;;5050875;28;20021;-45
2022/07/09 01:34:41;;;;;;;12.35;4.85;;;14.60;99.90;;;;;;5043124;28;20033;-46
2022/07/09 01:37:07;;;;;;;13.48;5.53;;;14.60;99.90;;;;;;5042744;28;20031;-45
2022/07/09 01:39:32;;;;;;;10.82;5.35;;;14.70;99.90;;;;;;5048375;28;20032;-45
2022/07/09 01:41:58;;;;;;;9.82;5.25;;;14.70;99.90;;;;;;5026189;28;20026;-46
2022/07/09 01:44:24;;;;;;;16.23;5.75;;;14.70;99.90;;;;;;5029588;28;20025;-46
2022/07/09 01:46:49;;;;;;;17.40;5.55;;;14.60;99.90;;;;;;5029438;28;20132;-46
2022/07/09 01:49:15;;;;;;;15.88;5.25;;;14.70;99.90;;;;;;5029248;28;20028;-46
2022/07/09 01:51:40;;;;;;;8.77;4.68;;;14.70;99.90;;;;;;5015948;28;20491;-46
2022/07/09 01:54:06;;;;;;;14.02;5.28;;;14.60;99.90;;;;;;5010101;28;20033;-45
2022/07/09 01:56:32;;;;;;;16.25;5.97;;;14.60;99.90;;;;;;5010754;28;20064;-46
2022/07/09 01:58:58;;;;;;;19.02;5.80;;;14.60;99.90;;;;;;5010749;28;20050;-45
2022/07/09 02:01:23;;;;;;;14.35;4.75;;;14.60;99.90;;;;;;5010440;28;20081;-46
2022/07/09 02:03:49;;;;;;;9.82;4.68;;;14.50;99.90;;;;;;5012044;28;20156;-44
2022/07/09 02:06:15;;;;;;;14.43;5.65;;;14.50;99.90;;;;;;5019106;28;20021;-46
2022/07/09 02:08:40;;;;;;;11.93;5.10;;;14.40;99.90;;;;;;5048444;28;20017;-46
2022/07/09 02:11:06;;;;;;;11.57;4.78;;;14.40;99.90;;;;;;5050308;28;20029;-45
2022/07/09 02:13:34;;;;;;;14.27;5.55;;;14.40;99.90;;;;;;5048760;28;20047;-47
2022/07/09 02:16:01;;;;;;;12.43;5.00;;;14.40;99.90;;;;;;5049353;28;20021;-46
2022/07/09 02:18:26;;;;;;;10.57;5.00;;;14.40;99.90;;;;;;5049957;28;20040;-45
2022/07/09 02:20:52;;;;;;;17.38;6.03;;;14.30;99.90;;;;;;5048318;28;20025;-44
2022/07/09 02:23:18;;;;;;;16.52;5.20;;;14.30;99.90;;;;;;5049830;28;20037;-45
2022/07/09 02:25:43;;;;;;;13.48;5.95;;;14.30;99.90;;;;;;5047961;28;20070;-44
2022/07/09 02:28:09;;;;;;;18.65;5.60;;;14.30;99.90;;;;;;5049895;28;20501;-45
2022/07/09 02:30:36;;;;;;;20.85;5.95;;;14.30;99.90;;;;;;5050021;28;20087;-46
2022/07/09 02:33:03;;;;;;;13.68;5.43;;;14.30;99.90;;;;;;5048734;28;20036;-46
2022/07/09 02:35:29;;;;;;;12.93;4.90;;;14.30;99.90;;;;;;5041914;28;20049;-45
2022/07/09 02:37:56;;;;;;;13.05;5.47;;;14.30;99.90;;;;;;5041080;28;20151;-45
2022/07/09 02:40:21;;;;;;;13.10;5.82;;;14.30;99.90;;;;;;5048309;28;20118;-46
2022/07/09 02:42:47;;;;;;;15.73;6.25;;;14.30;99.90;;;;;;5049661;28;20017;-45
2022/07/09 02:45:13;;;;;;;19.45;6.13;;;14.30;99.90;;;;;;5047516;28;20025;-46
2022/07/09 02:47:38;;;;;;;19.58;6.05;;;14.30;99.90;;;;;;5049435;28;20408;-46
2022/07/09 02:50:05;;;;;;;20.73;6.38;;;14.30;99.90;;;;;;5049255;28;20092;-47
2022/07/09 02:52:30;;;;;;;15.40;6.35;;;14.30;99.90;;;;;;5049247;28;20483;-45
2022/07/09 02:54:56;;;;;;;21.58;6.85;;;14.20;99.90;;;;;;5048782;28;20098;-44
2022/07/09 02:57:21;;;;;;;18.42;5.97;;;14.30;99.90;;;;;;5049487;28;20401;-45
2022/07/09 02:59:47;;;;;;;19.92;5.75;;;14.30;99.90;;;;;;5049142;28;20025;-45
2022/07/09 03:02:12;;;;;;;14.98;5.65;;;14.30;99.90;;;;;;5049245;28;20428;-46
2022/07/09 03:04:37;;;;;;;9.18;5.43;;;14.30;99.90;;;;;;5041072;28;20021;-45
2022/07/09 03:07:03;;;;;;;13.98;5.80;;;14.30;99.90;;;;;;5041308;28;20059;-46
2022/07/09 03:09:29;;;;;;;16.70;5.75;;;14.30;99.90;;;;;;5049724;28;20029;-45
2022/07/09 03:11:55;;;;;;;11.90;5.80;;;14.30;99.90;;;;;;5049270;28;20528;-46
2022/07/09 03:14:20;;;;;;;16.77;6.13;;;14.30;99.90;;;;;;5048498;28;20472;-46
2022/07/09 03:16:46;;;;;;;17.23;6.28;;;14.30;99.90;;;;;;5048896;28;20040;-45
2022/07/09 03:19:11;;;;;;;18.05;5.78;;;14.30;99.90;;;;;;5049361;28;20040;-46
2022/07/09 03:21:36;;;;;;;12.85;6.13;;;14.40;99.90;;;;;;5048418;28;20072;-45
2022/07/09 03:24:02;;;;;;;12.18;5.63;;;14.40;99.90;;;;;;5048462;28;20025;-46
2022/07/09 03:26:28;;;;;;;12.57;5.70;;;14.40;99.90;;;;;;5048905;28;20459;-46
2022/07/09 03:28:53;;;;;;;19.02;6.22;;;14.40;99.90;;;;;;5048930;28;20029;-46
2022/07/09 03:31:19;;;;;;;11.77;6.18;;;14.40;99.90;;;;;;5048851;28;20033;-45
2022/07/09 03:33:44;;;;;;;13.82;6.07;;;14.40;99.90;;;;;;5048038;28;20478;-46
2022/07/09 03:36:10;;;;;;;12.32;5.68;;;14.40;99.90;;;;;;5036315;28;20100;-45
2022/07/09 03:38:35;;;;;;;15.57;6.32;;;14.50;99.90;;;;;;5046407;28;20112;-45
2022/07/09 03:41:01;;;;;;;15.57;5.68;;;14.50;99.90;;;;;;5048593;28;20386;-45
2022/07/09 03:43:26;;;;;;;13.23;5.13;;;14.50;99.90;;;;;;5048746;28;20025;-46
2022/07/09 03:45:52;;;;;;;14.68;5.60;;;14.60;99.90;;;;;;5048160;28;20020;-45
2022/07/09 03:48:17;;;;;;;14.27;5.40;;;14.60;99.90;;;;;;5048764;28;20025;-48
2022/07/09 03:50:43;;;;;;;17.10;5.78;;;14.60;99.90;;;;;;5048198;28;20032;-45
2022/07/09 03:53:08;;;;;;;18.83;6.22;;;14.60;99.90;;;;;;5048629;28;20103;-45
2022/07/09 03:55:34;;;;;;;14.73;5.93;;;14.60;99.90;;;;;;5047819;28;20075;-47
2022/07/09 03:57:59;;;;;;;13.10;5.75;;;14.70;99.90;;;;;;5048662;28;20025;-46
2022/07/09 04:00:25;;;;;;;21.65;7.10;;;14.70;99.90;;;;;;5048468;28;20174;-46
2022/07/09 04:02:51;;;;;;;15.95;6.00;;;14.70;99.90;;;;;;5048481;28;20060;-45
2022/07/09 04:05:16;;;;;;;13.57;5.70;;;14.70;99.90;;;;;;5040310;28;20421;-45
2022/07/09 04:07:42;;;;;;;17.38;5.85;;;14.70;99.90;;;;;;5040188;28;20060;-46
2022/07/09 04:10:08;;;;;;;22.33;7.80;;;14.70;99.90;;;;;;5048780;28;20446;-46
2022/07/09 04:12:33;;;;;;;13.85;6.43;;;14.60;99.90;;;;;;5048443;28;20025;-46
2022/07/09 04:14:59;;;;;;;12.82;5.88;;;14.60;99.90;;;;;;5047767;28;20037;-45
2022/07/09 04:17:24;;;;;;;12.88;5.68;;;14.70;99.90;;;;;;5047180;28;20089;-46
2022/07/09 04:19:50;;;;;;;14.20;5.45;;;14.70;99.90;;;;;;5047894;28;20021;-48
2022/07/09 04:22:15;;;;;;;10.30;5.80;;;14.70;99.90;;;;;;5048049;28;20027;-46
2022/07/09 04:24:40;;;;;;;18.15;6.78;;;14.80;99.90;;;;;;5047606;28;20260;-45
2022/07/09 04:27:07;;;;;;;17.05;6.57;;;14.80;99.90;;;;;;5048378;28;20410;-45
2022/07/09 04:29:33;;;;;;;22.10;7.47;;;14.70;99.90;;;;;;5049081;28;20036;-45
2022/07/09 04:31:58;;;;;;;15.23;6.47;;;14.70;99.90;;;;;;5052336;28;20029;-45
2022/07/09 04:34:24;;;;;;;14.95;6.55;;;14.80;99.90;;;;;;5045327;28;20541;-45
2022/07/09 04:36:49;;;;;;;14.88;7.05;;;14.80;99.90;;;;;;5042943;28;20551;-45
2022/07/09 04:39:15;;;;;;;12.82;6.55;;;14.90;99.90;;;;;;5052493;28;20268;-46
2022/07/09 04:41:40;;;;;;;15.82;5.85;;;14.90;99.90;;;;;;5051977;28;20048;-44
2022/07/09 04:44:07;;;;;;;12.88;5.28;;;14.90;99.90;;;;;;5051441;28;20033;-44
2022/07/09 04:46:32;;;;;;;13.07;5.72;;;14.90;99.90;;;;;;5051813;28;20013;-45
2022/07/09 04:48:58;;;;;;;17.67;6.25;;;15.00;99.90;;;;;;5051629;28;20021;-46
2022/07/09 04:51:23;;;;;;;12.38;6.60;;;15.00;99.90;;;;;;5051376;28;20036;-45
2022/07/09 04:53:49;;;;;;;12.43;6.53;;;15.10;99.90;;;;;;5051903;28;20246;-45
2022/07/09 04:56:14;;;;;;;17.70;6.55;;;15.10;99.90;;;;;;5051160;28;20368;-45
2022/07/09 04:58:51;;;;;;;11.30;5.32;;;15.10;99.90;;;;;;5051506;28;20068;-45
2022/07/09 05:01:26;;;;;;;10.43;6.22;;;15.20;99.90;;;;;;5051430;28;20032;-45
2022/07/09 05:03:52;;;;;;;11.88;5.50;;;15.30;99.90;;;;;;5049129;28;20219;-46
2022/07/09 05:06:18;;;;;;;18.00;5.65;;;15.30;99.90;;;;;;5039000;28;20131;-49
2022/07/09 05:08:45;;;;;;;17.00;5.85;;;15.40;99.90;;;;;;5049998;28;20049;-46
2022/07/09 05:11:10;;;;;;;12.82;5.53;;;15.40;99.90;;;;;;5030858;28;20049;-46
2022/07/09 05:13:37;;;;;;;13.30;5.45;;;15.40;99.90;;;;;;5022209;28;20488;-46
2022/07/09 05:16:03;;;;;;;10.93;5.03;;;15.50;99.90;;;;;;5019243;28;20059;-45
2022/07/09 05:18:30;;;;;;;12.60;5.57;;;15.60;99.90;;;;;;5021060;28;20014;-46
2022/07/09 05:20:56;;;;;;;17.77;6.15;;;15.60;99.90;;;;;;5021127;28;20044;-46
2022/07/09 05:23:22;;;;;;;14.98;5.05;;;15.60;99.90;;;;;;5025416;28;20036;-45
2022/07/09 05:25:47;;;;;;;14.30;4.45;;;15.80;99.90;;;;;;5030587;28;20029;-47
2022/07/09 05:28:13;;;;;;;11.20;5.20;;;15.80;99.90;;;;;;5030903;28;20033;-49
2022/07/09 05:30:38;;;;;;;9.48;4.05;;;15.80;99.90;;;;;;5030940;28;20072;-46
2022/07/09 05:33:05;;;;;;;10.80;4.90;;;16.00;99.90;;;;;;5030751;28;20459;-46
2022/07/09 05:35:30;;;;;;;10.60;5.43;;;15.90;99.90;;;;;;5038123;28;20080;-46
2022/07/09 05:37:56;;;;;;;10.10;5.25;;;16.00;99.90;;;;;;5042980;28;20414;-47
2022/07/09 05:40:22;;;;;;;18.10;6.07;;;16.00;99.90;;;;;;5049264;28;20029;-47
2022/07/09 05:42:47;;;;;;;14.68;5.05;;;16.00;99.90;;;;;;5044701;28;20116;-46
2022/07/09 05:45:13;;;;;;;11.65;5.15;;;16.10;99.90;;;;;;5010664;28;20033;-48
2022/07/09 05:47:38;;;;;;;16.35;6.05;;;16.20;99.90;;;;;;5010857;28;20480;-46
2022/07/09 05:50:04;;;;;;;11.45;5.75;;;16.30;99.90;;;;;;5010487;28;20026;-46
2022/07/09 05:52:30;;;;;;;15.32;5.35;;;16.50;99.90;;;;;;5010858;28;20561;-46
2022/07/09 05:54:55;;;;;;;12.38;4.50;;;16.50;99.90;;;;;;5010008;28;20056;-46
2022/07/09 05:57:21;;;;;;;16.42;5.80;;;16.50;99.90;;;;;;5009073;28;20137;-46
2022/07/09 05:59:46;;;;;;;16.00;6.10;;;16.60;99.90;;;;;;5009242;28;20030;-46
2022/07/09 06:02:12;;;;;;;18.80;6.85;;;16.60;99.90;;;;;;5008536;28;20101;-46
2022/07/09 06:04:37;;;;;;;15.63;6.20;;;16.60;99.90;;;;;;5017707;28;20056;-46
2022/07/09 06:07:03;;;;;;;16.58;5.90;;;16.70;99.90;;;;;;5039248;28;20265;-46
2022/07/09 06:09:29;;;;;;;13.07;5.53;;;16.60;99.90;;;;;;5048425;28;20021;-46
2022/07/09 06:11:54;;;;;;;15.95;4.88;;;16.70;99.90;;;;;;5048317;28;20524;-46
2022/07/09 06:14:20;;;;;;;14.60;5.05;;;16.80;99.90;;;;;;5049186;28;20037;-46
2022/07/09 06:16:46;;;;;;;15.23;5.32;;;16.70;99.90;;;;;;5050240;28;20028;-49
2022/07/09 06:19:13;;;;;;;11.30;4.38;;;16.80;99.90;;;;;;5050313;28;20036;-46
2022/07/09 06:21:38;;;;;;;8.77;4.55;;;16.90;99.90;;;;;;5049874;28;20466;-46
2022/07/09 06:24:04;;;;;;;14.60;5.20;;;17.00;99.90;;;;;;5049620;28;20090;-49
2022/07/09 06:26:31;;;;;;;15.02;4.95;;;17.10;99.90;;;;;;5050139;28;20363;-49
2022/07/09 06:28:56;;;;;;;12.65;4.90;;;17.20;99.90;;;;;;5049955;28;20017;-46
2022/07/09 06:31:22;;;;;;;9.02;4.55;;;17.30;99.90;;;;;;5049856;28;20044;-46
2022/07/09 06:33:48;;;;;;;12.00;4.82;;;17.20;99.90;;;;;;5048127;28;20017;-48
2022/07/09 06:36:14;;;;;;;12.25;4.80;;;17.40;99.90;;;;;;5037554;28;20517;-49
2022/07/09 06:41:23;;;;;;;11.35;4.70;;;17.40;99.90;;;;;;5050020;28;20428;-47
2022/07/09 06:43:49;;;;;;;16.20;4.25;;;17.30;99.90;;;;;;5049372;28;20017;-48
2022/07/09 06:46:14;;;;;;;8.75;4.00;;;17.40;99.90;;;;;;5047807;28;20108;-45
2022/07/09 06:48:40;;;;;;;11.50;4.07;;;17.50;99.90;;;;;;5049491;28;20032;-45
2022/07/09 06:51:05;;;;;;;8.93;4.00;;;17.40;99.90;;;;;;5049058;28;20056;-46
2022/07/09 06:53:30;;;;;;;8.82;4.18;;;17.60;99.90;;;;;;5049153;28;20032;-46
2022/07/09 06:55:56;;;;;;;5.55;3.30;;;17.80;99.90;;;;;;5048883;28;20029;-46
2022/07/09 06:58:21;;;;;;;12.45;4.53;;;17.90;99.90;;;;;;5049300;28;20539;-45
2022/07/09 07:00:47;;;;;;;17.02;5.00;;;18.00;99.90;;;;;;5049265;28;20493;-46
2022/07/09 07:03:12;;;;;;;11.15;4.05;;;18.00;99.90;;;;;;5049312;28;20025;-46
2022/07/09 07:05:38;;;;;;;9.68;4.60;;;17.80;99.90;;;;;;5040135;28;20462;-46
2022/07/09 07:08:04;;;;;;;10.52;4.32;;;17.80;99.90;;;;;;5042335;28;20043;-45
2022/07/09 07:10:29;;;;;;;4.55;3.03;;;18.00;99.90;;;;;;5049212;28;20021;-45
2022/07/09 07:12:55;;;;;;;11.00;3.65;;;18.20;99.90;;;;;;5048967;28;20119;-45
2022/07/09 07:15:21;;;;;;;9.02;3.47;;;18.20;99.90;;;;;;5048762;28;20029;-45
2022/07/09 07:17:48;;;;;;;10.63;3.92;;;18.40;99.90;;;;;;5049356;28;20033;-46
2022/07/09 07:20:14;;;;;;;11.80;3.67;;;18.40;99.90;;;;;;5048865;28;20028;-46
2022/07/09 07:22:39;;;;;;;10.80;4.05;;;18.60;99.90;;;;;;5049193;28;20295;-47
2022/07/09 07:25:05;;;;;;;8.20;3.45;;;18.70;99.90;;;;;;5048500;28;20064;-46
2022/07/09 07:27:31;;;;;;;7.88;3.00;;;18.80;99.90;;;;;;5047716;28;20486;-47
2022/07/09 07:29:56;;;;;;;7.05;3.03;;;19.10;99.90;;;;;;5049048;28;20048;-46
2022/07/09 07:32:22;;;;;;;9.05;3.50;;;19.10;99.90;;;;;;5048894;28;20475;-47
2022/07/09 07:34:47;;;;;;;11.23;3.30;;;19.20;99.90;;;;;;5041036;28;20036;-50
2022/07/09 07:37:13;;;;;;;5.65;2.55;;;19.30;99.90;;;;;;5039736;28;20021;-49
2022/07/09 07:39:38;;;;;;;8.70;3.10;;;19.30;99.90;;;;;;5048671;28;20071;-46
2022/07/09 07:42:06;;;;;;;6.63;2.70;;;19.40;99.90;;;;;;5047344;28;20076;-46
2022/07/09 07:44:32;;;;;;;6.75;2.95;;;19.40;99.90;;;;;;5046813;28;20078;-46
2022/07/09 07:46:57;;;;;;;8.95;3.05;;;19.60;99.90;;;;;;5048864;28;20022;-47
2022/07/09 07:49:23;;;;;;;6.80;2.63;;;19.60;99.90;;;;;;5048934;28;20021;-46
2022/07/09 07:51:48;;;;;;;7.70;2.45;;;19.80;99.90;;;;;;5048414;28;20044;-49
2022/07/09 07:54:14;;;;;;;4.15;2.05;;;20.00;99.90;;;;;;5047935;28;20032;-47
2022/07/09 07:56:40;;;;;;;3.22;2.15;;;20.20;99.90;;;;;;5048494;28;20017;-49
2022/07/09 07:59:05;;;;;;;5.07;2.30;;;20.10;99.90;;;;;;5048464;28;20025;-47
2022/07/09 08:01:31;;;;;;;7.68;2.17;;;20.20;99.90;;;;;;5048336;28;20112;-48
2022/07/09 08:03:56;;;;;;;5.30;2.00;;;20.00;99.90;;;;;;5046535;28;20033;-47
2022/07/09 08:06:22;;;;;;;5.80;2.20;;;19.90;99.90;;;;;;5040212;28;20024;-46
2022/07/09 08:08:48;;;;;;;8.20;1.98;;;19.80;99.90;;;;;;5051747;28;20025;-46
2022/07/09 08:11:14;;;;;;;5.85;2.83;;;19.80;99.90;;;;;;5052527;28;20036;-47
2022/07/09 08:13:40;;;;;;;4.63;2.50;;;19.90;99.90;;;;;;5052679;28;20095;-47
2022/07/09 08:16:06;;;;;;;8.15;2.38;;;20.10;99.90;;;;;;5052085;28;20033;-47
2022/07/09 08:18:32;;;;;;;4.72;2.13;;;20.10;99.90;;;;;;5052572;28;20032;-47
2022/07/09 08:20:57;;;;;;;2.58;1.83;;;20.00;99.90;;;;;;5050772;28;20036;-47
2022/07/09 08:23:23;;;;;;;3.58;2.10;;;19.90;99.90;;;;;;5050835;28;20098;-47
2022/07/09 08:25:49;;;;;;;2.60;2.08;;;19.80;99.90;;;;;;5051535;28;20024;-47
2022/07/09 08:28:15;;;;;;;4.82;2.47;;;19.70;99.90;;;;;;5052179;28;20550;-47
2022/07/09 08:30:41;;;;;;;4.32;2.13;;;19.50;99.90;;;;;;5052271;28;20064;-47
2022/07/09 08:33:07;;;;;;;4.65;2.45;;;19.30;99.90;;;;;;5052460;28;20025;-46
2022/07/09 08:35:33;;;;;;;3.42;1.95;;;19.20;99.90;;;;;;5043342;28;20100;-46
2022/07/09 08:37:58;;;;;;;5.22;2.13;;;19.10;99.90;;;;;;5044386;28;20482;-46
2022/07/09 08:40:25;;;;;;;2.00;1.80;;;19.00;99.90;;;;;;5051804;28;20371;-48
2022/07/09 08:42:53;;;;;;;4.03;2.38;;;18.90;99.90;;;;;;5052171;28;20541;-46
2022/07/09 08:45:20;;;;;;;4.53;2.05;;;18.80;99.90;;;;;;5049818;28;20390;-46
2022/07/09 08:47:46;;;;;;;6.40;2.53;;;18.90;99.90;;;;;;5052007;28;20024;-48
2022/07/09 08:50:12;;;;;;;8.18;2.28;;;18.90;99.90;;;;;;5051747;28;20390;-46
2022/07/09 08:52:40;;;;;;;3.45;2.30;;;18.90;99.90;;;;;;5051630;28;20474;-45
2022/07/09 08:55:07;;;;;;;4.57;2.58;;;18.80;99.90;;;;;;5050959;28;20525;-45
2022/07/09 08:57:33;;;;;;;4.18;3.10;;;18.70;99.90;;;;;;5051645;28;20036;-46
2022/07/09 09:00:00;;;;;;;3.03;2.13;;;18.60;99.90;;;;;;5051578;28;20501;-46
2022/07/09 09:02:25;;;;;;;5.60;2.65;;;18.70;99.90;;;;;;5051647;28;20063;-46
2022/07/09 09:04:54;;;;;;;5.95;2.80;;;18.90;99.90;;;;;;5043898;28;20052;-46
2022/07/09 09:07:21;;;;;;;7.07;3.30;;;19.00;99.90;;;;;;5043526;28;20458;-46
2022/07/09 09:09:47;;;;;;;3.00;2.38;;;19.30;99.90;;;;;;5051786;28;20248;-47
2022/07/09 09:12:13;;;;;;;2.22;2.00;;;19.70;99.90;;;;;;5051675;28;20526;-46
2022/07/09 09:14:39;;;;;;;5.30;2.28;;;20.00;99.90;;;;;;5050540;28;20047;-46
2022/07/09 09:17:06;;;;;;;4.03;2.35;;;20.20;99.90;;;;;;5052067;28;20455;-46
2022/07/09 09:19:32;;;;;;;4.70;1.98;;;20.10;99.90;;;;;;5051605;28;20395;-46
2022/07/09 09:21:57;;;;;;;8.05;3.00;;;20.10;99.90;;;;;;5051153;28;20021;-46
2022/07/09 09:24:25;;;;;;;6.30;2.53;;;20.10;99.90;;;;;;5050688;28;20519;-46
2022/07/09 09:26:51;;;;;;;2.08;1.92;;;20.00;99.90;;;;;;5051390;28;20032;-49
2022/07/09 09:29:17;;;;;;;2.92;2.05;;;20.10;99.90;;;;;;5051107;28;20379;-47
2022/07/09 09:31:45;;;;;;;3.38;2.05;;;20.30;99.90;;;;;;5051210;28;20253;-46
2022/07/09 09:34:13;;;;;;;4.05;2.20;;;20.70;99.90;;;;;;5044428;28;20422;-46
2022/07/09 09:36:44;;;;;;;2.53;1.83;;;21.00;99.90;;;;;;5040403;28;20252;-46
2022/07/09 09:39:13;;;;;;;4.80;1.90;;;20.90;99.90;;;;;;5050985;28;20044;-46
2022/07/09 09:41:40;;;;;;;3.08;2.15;;;20.80;99.90;;;;;;5044856;28;20025;-46
2022/07/09 09:44:11;;;;;;;3.95;1.50;;;21.10;99.90;;;;;;5041804;28;20117;-46
2022/07/09 09:46:37;;;;;;;5.60;2.03;;;21.40;99.90;;;;;;5050821;28;20025;-46
2022/07/09 09:49:07;;;;;;;2.13;1.70;;;21.80;99.90;;;;;;5050685;28;20021;-49
2022/07/09 09:51:35;;;;;;;2.42;1.55;;;21.90;99.90;;;;;;5050739;28;20029;-48
2022/07/09 09:54:01;;;;;;;2.08;1.70;;;22.10;99.90;;;;;;5050115;28;20044;-46
2022/07/09 09:56:28;;;;;;;4.80;1.80;;;22.10;99.90;;;;;;5050289;28;20032;-46
2022/07/09 09:58:55;;;;;;;1.95;1.60;;;22.00;99.90;;;;;;5050521;28;20191;-46
2022/07/09 10:01:20;;;;;;;4.30;2.38;;;22.10;99.90;;;;;;5050273;28;20039;-46
2022/07/09 10:03:47;;;;;;;5.95;1.98;;;22.40;99.90;;;;;;5050079;28;20021;-47
2022/07/09 10:06:13;;;;;;;3.17;1.88;;;22.80;99.90;;;;;;5049868;28;20029;-47
2022/07/09 10:08:38;;;;;;;3.53;1.70;;;23.00;99.30;;;;;;5050288;28;20115;-50
2022/07/09 10:11:04;;;;;;;3.70;1.92;;;22.80;99.50;;;;;;5049102;28;20029;-46
2022/07/09 10:13:29;;;;;;;3.38;1.73;;;22.90;99.60;;;;;;5038165;28;20083;-46
2022/07/09 10:15:55;;;;;;;3.33;2.10;;;22.70;99.60;;;;;;5050097;28;20024;-47
2022/07/09 10:18:20;;;;;;;4.15;1.80;;;22.50;99.90;;;;;;5050121;28;20052;-47
2022/07/09 10:20:46;;;;;;;3.65;2.00;;;22.80;99.90;;;;;;5050160;28;20104;-46
2022/07/09 10:23:24;;;;;;;2.55;1.83;;;22.90;98.80;;;;;;5050240;28;20021;-46
2022/07/09 10:25:57;;;;;;;3.10;1.73;;;22.90;99.10;;;;;;5049194;28;20497;-47
2022/07/09 10:28:25;;;;;;;3.38;2.20;;;22.40;99.40;;;;;;5049348;28;20025;-46
2022/07/09 10:30:51;;;;;;;3.17;2.03;;;22.40;99.80;;;;;;5049813;28;20017;-45
2022/07/09 10:33:48;;;;;;;3.83;2.63;;;22.30;99.20;;;;;;5048539;28;20032;-47
2022/07/09 10:36:15;;;;;;;3.53;1.95;;;22.30;99.00;;;;;;5048822;28;20529;-47
2022/07/09 10:38:55;;;;;;;2.83;1.80;;;22.20;98.70;;;;;;5049690;28;20029;-46
2022/07/09 10:41:22;;;;;;;8.40;2.42;;;22.80;99.90;;;;;;5045809;28;20036;-46
2022/07/09 10:43:52;;;;;;;5.22;2.75;;;23.40;98.50;;;;;;5040546;28;20028;-46
2022/07/09 10:46:19;;;;;;;3.60;2.08;;;24.20;97.00;;;;;;5049271;28;20013;-49
2022/07/09 10:48:45;;;;;;;3.83;1.90;;;25.30;94.00;;;;;;5049377;28;20155;-47
2022/07/09 10:51:22;;;;;;;3.83;1.40;;;26.80;92.20;;;;;;5049494;28;20017;-46
2022/07/09 10:53:48;;;;;;;3.33;1.58;;;27.90;88.00;;;;;;5047796;28;20367;-48
2022/07/09 10:56:20;;;;;;;2.40;1.45;;;28.40;86.10;;;;;;5048896;28;20039;-47
2022/07/09 10:58:47;;;;;;;2.95;1.27;;;29.10;81.80;;;;;;5049158;28;20264;-46
2022/07/09 11:01:19;;;;;;;1.17;1.02;;;29.60;77.30;;;;;;5049094;28;20025;-46
2022/07/09 11:03:49;;;;;;;10.82;8.05;;;30.40;74.50;;;;;;5049322;28;20013;-47
2022/07/09 11:06:15;;;;;;;2.63;1.30;;;31.10;69.10;;;;;;5049003;28;20204;-46
2022/07/09 11:08:40;;;;;;;3.33;1.42;;;30.00;69.20;;;;;;5049389;28;20337;-45
2022/07/09 11:11:06;;;;;;;3.65;1.75;;;29.10;71.90;;;;;;5047479;28;20039;-46
2022/07/09 11:13:31;;;;;;;4.15;1.63;;;28.20;72.70;;;;;;5037510;28;20045;-45
2022/07/09 11:16:00;;;;;;;4.38;1.50;;;27.70;76.40;;;;;;5048498;28;20025;-47
2022/07/09 11:18:28;;;;;;;5.50;1.57;;;27.60;75.60;;;;;;5048873;28;20186;-45
2022/07/09 11:20:54;;;;;;;5.13;1.60;;;28.10;73.90;;;;;;5048754;28;20108;-49
2022/07/09 11:23:20;;;;;;;9.68;1.48;;;27.70;72.90;;;;;;5048916;28;20109;-46
2022/07/09 11:25:46;;;;;;;4.28;1.70;;;27.70;74.40;;;;;;5048137;28;20025;-47
2022/07/09 11:28:23;;;;;;;2.08;1.20;;;26.80;74.00;;;;;;5048564;28;20039;-46
2022/07/09 11:31:03;;;;;;;2.00;1.40;;;26.30;74.10;;;;;;5048886;28;20506;-48
2022/07/09 11:34:10;;;;;;;2.42;1.38;;;25.40;75.60;;;;;;5048904;28;20033;-49
2022/07/09 11:36:15;;;;;;;2.25;1.38;;;25.10;76.90;;;;;;5048043;28;20098;-45
2022/07/09 11:38:52;;;;;;;3.45;1.70;;;25.30;77.60;;;;;;5048590;28;20041;-46
2022/07/09 11:41:18;;;;;;;3.33;1.35;;;25.50;76.10;;;;;;5045724;28;20105;-47
2022/07/09 11:43:47;;;;;;;3.17;1.65;;;26.30;75.90;;;;;;5039024;28;20112;-49
2022/07/09 11:46:16;;;;;;;2.95;1.95;;;26.40;74.70;;;;;;5048212;28;20061;-49
2022/07/09 11:48:49;;;;;;;2.22;1.40;;;26.70;73.30;;;;;;5048717;28;20581;-45
2022/07/09 11:51:28;;;;;;;4.65;1.60;;;27.40;72.10;;;;;;5048705;28;20040;-46
2022/07/09 11:53:54;;;;;;;3.63;1.70;;;27.50;71.60;;;;;;5048569;28;20025;-46
2022/07/09 11:56:19;;;;;;;2.45;1.40;;;27.50;71.50;;;;;;5048159;28;20028;-46
2022/07/09 11:58:52;;;;;;;1.35;1.10;;;27.60;72.10;;;;;;5048339;28;20120;-46
2022/07/09 12:01:18;;;;;;;2.33;1.60;;;27.70;71.20;;;;;;5048430;28;20025;-46
2022/07/09 12:03:48;;;;;;;2.50;1.10;;;28.20;70.10;;;;;;5048458;28;20551;-46
2022/07/09 12:06:14;;;;;;;1.27;1.13;;;28.80;68.80;;;;;;5047941;28;20041;-49
2022/07/09 12:08:39;;;;;;;2.60;1.77;;;28.80;70.20;;;;;;5048323;28;20179;-49
2022/07/09 12:11:05;;;;;;;1.88;1.30;;;28.30;67.60;;;;;;5046752;28;20116;-47
2022/07/09 12:13:31;;;;;;;1.92;1.50;;;27.50;67.90;;;;;;5036681;28;20482;-46
2022/07/09 12:15:56;;;;;;;1.42;1.02;;;26.90;69.90;;;;;;5048029;28;20434;-46
2022/07/09 12:18:22;;;;;;;1.98;1.70;;;26.60;71.30;;;;;;5048265;28;20025;-47
2022/07/09 12:20:47;;;;;;;2.05;1.50;;;26.50;71.80;;;;;;5046848;28;20487;-48
2022/07/09 12:23:13;;;;;;;2.88;1.27;;;26.20;71.70;;;;;;5048122;28;20061;-46
2022/07/09 12:25:39;;;;;;;4.85;1.42;;;25.70;73.70;;;;;;5047505;28;20383;-48
2022/07/09 12:28:05;;;;;;;3.80;1.50;;;25.70;75.30;;;;;;5048218;28;20479;-46
2022/07/09 12:30:31;;;;;;;2.38;1.85;;;26.00;72.50;;;;;;5048329;28;20052;-46
2022/07/09 12:32:58;;;;;;;2.55;1.52;;;25.70;73.50;;;;;;5048626;28;20040;-45
2022/07/09 12:35:25;;;;;;;1.83;1.42;;;25.80;76.90;;;;;;5046558;28;20116;-46
2022/07/09 12:37:51;;;;;;;4.43;1.52;;;26.20;73.80;;;;;;5047925;28;20493;-46
2022/07/09 12:40:16;;;;;;;1.98;1.50;;;26.40;73.80;;;;;;5048007;28;20162;-48